Time;durP1;ratioP1;P1;durP2;ratioP2;P2;SDS_P1;SDS_P2;PMS_P1;PMS_P2;Temp;Humidity;BMP_temperature;BMP_pressure;BME280_temperature;BME280_humidity;BME280_pressure;Samples;Min_cycle;Max_cycle;Signal;HPM_P1;HPM_P2
2021/05/13 00:01:20;;;;;;;0.20;0.20;;;18.10;75.60;;;;;;4208435;28;20146;-44
2021/05/13 00:03:42;;;;;;;0.00;0.00;;;18.10;75.60;;;;;;4196867;28;20094;-48
2021/05/13 00:06:05;;;;;;;0.40;0.40;;;18.10;75.60;;;;;;4191061;28;20048;-48
2021/05/13 00:08:26;;;;;;;0.00;0.00;;;18.10;75.60;;;;;;4196011;28;20036;-47
2021/05/13 00:10:48;;;;;;;0.00;0.00;;;18.10;75.60;;;;;;4207907;28;20130;-51
2021/05/13 00:13:10;;;;;;;0.00;0.00;;;18.10;75.60;;;;;;4203947;28;20109;-49
2021/05/13 00:15:35;;;;;;;0.10;0.10;;;18.10;75.60;;;;;;4207463;28;20051;-47
2021/05/13 00:17:57;;;;;;;0.00;0.00;;;18.10;76.10;;;;;;4207839;28;20040;-47
2021/05/13 00:20:21;;;;;;;0.10;0.10;;;18.10;75.70;;;;;;4204731;28;20039;-46
2021/05/13 00:22:44;;;;;;;0.00;0.00;;;18.10;75.70;;;;;;4190778;28;20048;-47
2021/05/13 00:25:08;;;;;;;0.10;0.10;;;18.10;76.60;;;;;;4190829;28;20048;-46
2021/05/13 00:27:29;;;;;;;0.00;0.00;;;18.00;75.70;;;;;;4191103;28;20147;-47
2021/05/13 00:29:51;;;;;;;0.00;0.00;;;18.00;75.80;;;;;;4190940;28;20090;-47
2021/05/13 00:32:12;;;;;;;0.00;0.00;;;18.00;75.80;;;;;;4190618;28;20409;-50
2021/05/13 00:34:34;;;;;;;0.08;0.08;;;18.00;75.80;;;;;;4191058;28;20052;-48
2021/05/13 00:36:55;;;;;;;0.00;0.00;;;18.00;75.90;;;;;;4190926;28;20468;-45
2021/05/13 00:39:18;;;;;;;0.10;0.10;;;18.00;75.90;;;;;;4191325;28;20060;-49
2021/05/13 00:41:40;;;;;;;0.00;0.00;;;18.00;75.90;;;;;;4191011;28;20133;-45
2021/05/13 00:44:02;;;;;;;2.17;0.68;;;18.00;75.90;;;;;;4203812;28;20371;-46
2021/05/13 00:46:24;;;;;;;0.00;0.00;;;18.00;76.00;;;;;;4207650;28;20365;-45
2021/05/13 00:48:46;;;;;;;0.10;0.10;;;18.00;76.00;;;;;;4207427;28;20082;-45
2021/05/13 00:51:08;;;;;;;0.00;0.00;;;18.00;76.00;;;;;;4207492;28;20048;-48
2021/05/13 00:53:29;;;;;;;0.10;0.10;;;18.00;76.00;;;;;;4201958;28;20149;-44
2021/05/13 00:55:55;;;;;;;0.00;0.00;;;18.00;76.10;;;;;;4190514;28;20048;-48
2021/05/13 00:58:16;;;;;;;0.20;0.20;;;18.00;76.10;;;;;;4175708;28;20045;-45
2021/05/13 01:00:45;;;;;;;0.00;0.00;;;17.90;76.10;;;;;;4174341;28;20049;-44
2021/05/13 01:03:07;;;;;;;0.10;0.10;;;17.90;76.00;;;;;;4174373;28;20407;-47
2021/05/13 01:05:29;;;;;;;0.13;0.13;;;17.90;76.10;;;;;;4181557;28;20064;-49
2021/05/13 01:07:51;;;;;;;0.00;0.00;;;17.90;76.10;;;;;;4190714;28;20057;-44
2021/05/13 01:10:13;;;;;;;0.00;0.00;;;17.90;76.10;;;;;;4190826;28;20133;-48
2021/05/13 01:12:39;;;;;;;0.10;0.10;;;17.90;76.10;;;;;;4190658;28;20132;-48
2021/05/13 01:15:01;;;;;;;0.00;0.00;;;17.90;76.10;;;;;;4191842;28;20048;-49
2021/05/13 01:17:26;;;;;;;0.00;0.00;;;17.90;76.10;;;;;;4191158;28;20410;-46
2021/05/13 01:19:51;;;;;;;0.08;0.08;;;17.90;76.10;;;;;;4173991;28;20053;-44
2021/05/13 01:22:13;;;;;;;0.22;0.22;;;17.80;76.10;;;;;;4191021;28;20464;-47
2021/05/13 01:24:35;;;;;;;0.00;0.00;;;17.80;76.10;;;;;;4190688;28;20078;-45
2021/05/13 01:26:57;;;;;;;0.40;0.40;;;17.90;76.20;;;;;;4190172;28;20059;-45
2021/05/13 01:29:21;;;;;;;0.13;0.13;;;17.80;76.10;;;;;;4191512;28;20760;-45
2021/05/13 01:31:42;;;;;;;0.00;0.00;;;17.80;76.20;;;;;;4207357;28;20060;-46
2021/05/13 01:34:06;;;;;;;0.00;0.00;;;17.80;76.30;;;;;;4207180;28;20058;-46
2021/05/13 01:36:28;;;;;;;0.10;0.10;;;17.80;76.30;;;;;;4192125;28;20119;-44
2021/05/13 01:38:50;;;;;;;0.00;0.00;;;17.80;76.30;;;;;;4193207;28;20074;-46
2021/05/13 01:41:11;;;;;;;0.00;0.00;;;17.80;76.40;;;;;;4193214;28;20045;-47
2021/05/13 01:43:33;;;;;;;0.00;0.00;;;17.80;77.40;;;;;;4204059;28;20441;-47
2021/05/13 01:45:55;;;;;;;0.00;0.00;;;17.80;76.60;;;;;;4210090;28;20105;-48
2021/05/13 01:48:17;;;;;;;0.52;0.52;;;17.80;76.70;;;;;;4195708;28;20419;-47
2021/05/13 01:50:39;;;;;;;0.00;0.00;;;17.80;76.60;;;;;;4194589;28;20450;-45
2021/05/13 01:53:03;;;;;;;3.20;0.57;;;17.70;76.50;;;;;;4192603;28;20410;-47
2021/05/13 01:55:26;;;;;;;0.28;0.28;;;17.70;76.60;;;;;;4193982;28;20052;-44
2021/05/13 01:57:48;;;;;;;0.17;0.17;;;17.70;76.60;;;;;;4189244;28;20071;-48
2021/05/13 02:00:10;;;;;;;;;;;17.70;76.70;;;;;;4177096;28;20056;-49
2021/05/13 02:02:31;;;;;;;0.00;0.00;;;17.70;76.80;;;;;;4188978;28;19927;-45
2021/05/13 02:04:53;;;;;;;0.10;0.10;;;17.70;76.80;;;;;;4192312;28;20135;-46
2021/05/13 02:07:15;;;;;;;0.00;0.00;;;17.70;76.90;;;;;;4192721;28;20079;-45
2021/05/13 02:09:37;;;;;;;0.00;0.00;;;17.70;77.80;;;;;;4192975;28;20040;-49
2021/05/13 02:11:59;;;;;;;0.00;0.00;;;17.60;77.00;;;;;;4193048;28;20493;-50
2021/05/13 02:14:21;;;;;;;0.00;0.00;;;17.60;77.10;;;;;;4192993;28;20109;-46
2021/05/13 02:16:42;;;;;;;0.00;0.00;;;17.60;77.10;;;;;;4192121;28;20399;-47
2021/05/13 02:19:04;;;;;;;0.00;0.00;;;17.60;77.10;;;;;;4192607;28;20055;-51
2021/05/13 02:21:26;;;;;;;2.45;0.45;;;17.60;77.20;;;;;;4188888;28;20055;-49
2021/05/13 02:23:48;;;;;;;0.00;0.00;;;17.60;77.20;;;;;;4175954;28;20049;-48
2021/05/13 02:26:10;;;;;;;0.10;0.10;;;17.60;77.30;;;;;;4193121;28;20612;-48
2021/05/13 02:28:32;;;;;;;0.00;0.00;;;17.50;77.30;;;;;;4192895;28;20040;-49
2021/05/13 02:30:54;;;;;;;0.00;0.00;;;17.50;77.20;;;;;;4192522;28;20488;-49
2021/05/13 02:33:16;;;;;;;0.15;0.15;;;17.60;77.30;;;;;;4194216;28;20414;-50
2021/05/13 02:35:37;;;;;;;0.00;0.00;;;17.50;77.30;;;;;;4192648;28;20052;-48
2021/05/13 02:37:59;;;;;;;0.10;0.10;;;17.50;77.30;;;;;;4208709;28;20044;-49
2021/05/13 02:40:21;;;;;;;0.00;0.00;;;17.50;77.30;;;;;;4207649;28;20135;-51
2021/05/13 02:42:44;;;;;;;0.00;0.00;;;17.50;77.30;;;;;;4177717;28;20053;-48
2021/05/13 02:45:08;;;;;;;0.00;0.00;;;17.50;77.30;;;;;;4192331;28;20055;-46
2021/05/13 02:47:30;;;;;;;0.00;0.00;;;17.50;77.30;;;;;;4192309;28;20056;-47
2021/05/13 02:49:51;;;;;;;0.08;0.08;;;17.50;78.20;;;;;;4195726;28;20109;-48
2021/05/13 02:52:13;;;;;;;0.60;0.57;;;17.50;77.40;;;;;;4209111;28;20063;-49
2021/05/13 02:54:35;;;;;;;0.10;0.10;;;17.50;78.20;;;;;;4208395;28;20470;-48
2021/05/13 02:56:56;;;;;;;0.00;0.00;;;17.50;77.40;;;;;;4208638;28;20063;-48
2021/05/13 02:59:18;;;;;;;0.00;0.00;;;17.50;77.30;;;;;;4206566;28;20044;-48
2021/05/13 03:01:41;;;;;;;0.30;0.30;;;17.40;77.30;;;;;;4184466;28;20511;-48
2021/05/13 03:04:03;;;;;;;0.52;0.45;;;17.40;77.40;;;;;;4192088;28;20068;-50
2021/05/13 03:06:31;;;;;;;0.20;0.20;;;17.40;77.40;;;;;;4192114;28;20336;-48
2021/05/13 03:08:54;;;;;;;0.00;0.00;;;17.40;77.40;;;;;;4205054;28;20520;-50
2021/05/13 03:11:15;;;;;;;0.00;0.00;;;17.40;77.40;;;;;;4204738;28;20049;-48
2021/05/13 03:13:38;;;;;;;0.00;0.00;;;17.40;77.50;;;;;;4192093;28;20048;-50
2021/05/13 03:15:59;;;;;;;0.35;0.35;;;17.40;77.50;;;;;;4191890;28;20123;-47
2021/05/13 03:18:24;;;;;;;0.00;0.00;;;17.40;77.50;;;;;;4200466;28;20047;-48
2021/05/13 03:20:50;;;;;;;0.13;0.13;;;17.40;77.50;;;;;;4197764;28;20062;-48
2021/05/13 03:23:12;;;;;;;1.88;0.43;;;17.40;77.60;;;;;;4191540;28;20116;-47
2021/05/13 03:25:34;;;;;;;0.20;0.20;;;17.40;77.60;;;;;;4190217;28;20074;-46
2021/05/13 03:28:06;;;;;;;0.00;0.00;;;17.40;77.60;;;;;;4192821;28;20105;-45
2021/05/13 03:30:28;;;;;;;0.00;0.00;;;17.40;77.60;;;;;;4191510;28;20055;-49
2021/05/13 03:32:49;;;;;;;0.35;0.20;;;17.40;77.60;;;;;;4191744;28;20044;-47
2021/05/13 03:35:14;;;;;;;;;;;17.40;77.60;;;;;;4192147;28;20076;-49
2021/05/13 03:37:35;;;;;;;0.22;0.22;;;17.40;77.70;;;;;;4192608;28;19965;-48
2021/05/13 03:39:58;;;;;;;0.00;0.00;;;17.40;77.70;;;;;;4191493;28;20052;-49
2021/05/13 03:42:19;;;;;;;1.15;0.40;;;17.40;77.80;;;;;;4191475;28;20526;-49
2021/05/13 03:44:44;;;;;;;0.00;0.00;;;17.30;77.80;;;;;;4191450;28;20052;-49
2021/05/13 03:47:05;;;;;;;0.00;0.00;;;17.30;77.80;;;;;;4191408;28;20091;-45
2021/05/13 03:49:26;;;;;;;;;;;17.30;77.90;;;;;;4192320;28;20142;-48
2021/05/13 03:51:49;;;;;;;0.00;0.00;;;17.30;78.00;;;;;;4207898;28;19924;-47
2021/05/13 03:54:10;;;;;;;0.00;0.00;;;17.30;78.00;;;;;;4208038;28;20440;-47
2021/05/13 03:56:32;;;;;;;0.00;0.00;;;17.30;77.90;;;;;;4206717;28;20056;-51
2021/05/13 03:58:57;;;;;;;0.10;0.10;;;17.30;77.90;;;;;;4204373;28;20048;-50
2021/05/13 04:01:30;;;;;;;0.00;0.00;;;17.30;77.90;;;;;;4191310;28;20139;-46
2021/05/13 04:03:51;;;;;;;0.52;0.43;;;17.20;77.90;;;;;;4191176;28;20052;-53
2021/05/13 04:06:13;;;;;;;0.10;0.10;;;17.30;77.90;;;;;;4191147;28;20051;-49
2021/05/13 04:08:36;;;;;;;0.03;0.03;;;17.30;77.90;;;;;;4203580;28;20152;-47
2021/05/13 04:10:57;;;;;;;0.00;0.00;;;17.20;77.80;;;;;;4204059;28;20519;-47
2021/05/13 04:13:19;;;;;;;;;;;17.20;77.80;;;;;;4208057;28;20093;-45
2021/05/13 04:16:07;;;;;;;0.47;0.47;;;17.30;77.90;;;;;;4207862;28;20370;-47
2021/05/13 04:18:30;;;;;;;0.00;0.00;;;17.20;77.90;;;;;;4196743;28;20135;-47
2021/05/13 04:20:51;;;;;;;0.25;0.25;;;17.20;77.90;;;;;;4202714;28;20052;-47
2021/05/13 04:23:12;;;;;;;;;;;17.20;77.90;;;;;;4208187;28;20093;-47
2021/05/13 04:25:35;;;;;;;0.00;0.00;;;17.20;77.90;;;;;;4207782;28;19930;-47
2021/05/13 04:27:57;;;;;;;0.00;0.00;;;17.30;77.90;;;;;;4205257;28;20055;-47
2021/05/13 04:30:19;;;;;;;0.00;0.00;;;17.20;77.80;;;;;;4191147;28;20059;-47
2021/05/13 04:32:41;;;;;;;0.20;0.20;;;17.30;77.90;;;;;;4191227;28;20040;-49
2021/05/13 04:35:03;;;;;;;0.10;0.10;;;17.20;77.80;;;;;;4175988;28;20052;-50
2021/05/13 04:37:25;;;;;;;0.00;0.00;;;17.20;77.80;;;;;;4200276;28;20414;-49
2021/05/13 04:39:46;;;;;;;0.00;0.00;;;17.20;77.80;;;;;;4190994;28;20066;-45
2021/05/13 04:42:09;;;;;;;0.00;0.00;;;17.20;77.80;;;;;;4195402;28;20127;-48
2021/05/13 04:44:33;;;;;;;0.00;0.00;;;17.20;77.70;;;;;;4207487;28;20144;-47
2021/05/13 04:46:59;;;;;;;0.00;0.00;;;17.20;77.70;;;;;;4190584;28;20052;-47
2021/05/13 04:49:21;;;;;;;0.00;0.00;;;17.20;77.70;;;;;;4205234;28;20048;-48
2021/05/13 04:51:45;;;;;;;0.00;0.00;;;17.30;77.80;;;;;;4207646;28;20059;-45
2021/05/13 04:54:07;;;;;;;0.40;0.35;;;17.30;77.60;;;;;;4207465;28;20139;-46
2021/05/13 04:56:28;;;;;;;0.00;0.00;;;17.30;77.50;;;;;;4203052;28;20491;-45
2021/05/13 04:58:52;;;;;;;0.10;0.10;;;17.30;77.40;;;;;;4190566;28;20506;-48
2021/05/13 05:01:14;;;;;;;0.00;0.00;;;17.30;77.30;;;;;;4191076;28;20048;-44
2021/05/13 05:03:36;;;;;;;0.00;0.00;;;17.40;77.40;;;;;;4191013;28;20071;-46
2021/05/13 05:05:58;;;;;;;0.00;0.00;;;17.40;77.40;;;;;;4190964;28;20077;-46
2021/05/13 05:08:19;;;;;;;0.10;0.08;;;17.40;78.30;;;;;;4204031;28;20051;-47
2021/05/13 05:10:41;;;;;;;0.47;0.47;;;17.50;78.40;;;;;;4209472;28;20521;-44
2021/05/13 05:13:03;;;;;;;0.00;0.00;;;17.50;77.80;;;;;;4208105;28;20044;-48
2021/05/13 05:15:25;;;;;;;1.02;0.30;;;17.50;77.60;;;;;;4202942;28;20048;-45
2021/05/13 05:17:47;;;;;;;1.27;1.17;;;17.50;77.40;;;;;;4210538;28;20101;-48
2021/05/13 05:20:09;;;;;;;;;;;17.50;77.40;;;;;;4195790;28;20048;-50
2021/05/13 05:22:31;;;;;;;0.00;0.00;;;17.50;77.30;;;;;;4194182;28;20021;-45
2021/05/13 05:24:53;;;;;;;0.30;0.30;;;17.50;77.20;;;;;;4193877;28;20135;-46
2021/05/13 05:27:14;;;;;;;0.77;0.55;;;17.50;77.20;;;;;;4204259;28;20406;-46
2021/05/13 05:29:36;;;;;;;0.00;0.00;;;17.50;77.20;;;;;;4193075;28;20048;-47
2021/05/13 05:31:58;;;;;;;0.10;0.10;;;17.50;77.20;;;;;;4207962;28;20051;-45
2021/05/13 05:34:19;;;;;;;0.00;0.00;;;17.50;77.20;;;;;;4210348;28;20105;-48
2021/05/13 05:36:41;;;;;;;1.23;0.60;;;17.50;77.10;;;;;;4210447;28;20550;-45
2021/05/13 05:39:03;;;;;;;0.08;0.08;;;17.60;77.10;;;;;;4209974;28;20055;-49
2021/05/13 05:41:25;;;;;;;0.10;0.10;;;17.60;77.10;;;;;;4210242;28;20040;-46
2021/05/13 05:43:47;;;;;;;0.00;0.00;;;17.60;77.00;;;;;;4209884;28;20422;-47
2021/05/13 05:46:08;;;;;;;0.10;0.10;;;17.60;76.90;;;;;;4210289;28;20501;-47
2021/05/13 05:48:31;;;;;;;0.00;0.00;;;17.70;76.90;;;;;;4210135;28;20445;-48
2021/05/13 05:50:53;;;;;;;0.00;0.00;;;17.70;76.70;;;;;;4210033;28;20165;-48
2021/05/13 05:53:14;;;;;;;0.00;0.00;;;17.70;76.50;;;;;;4199648;28;20137;-47
2021/05/13 05:55:37;;;;;;;0.00;0.00;;;17.70;76.40;;;;;;4192917;28;20102;-50
2021/05/13 05:58:00;;;;;;;0.00;0.00;;;17.70;76.20;;;;;;4193517;28;20067;-47
2021/05/13 06:00:22;;;;;;;0.00;0.00;;;17.70;75.90;;;;;;4193257;28;20098;-49
2021/05/13 06:02:43;;;;;;;0.00;0.00;;;17.60;75.90;;;;;;4193247;28;20053;-46
2021/05/13 06:05:07;;;;;;;0.20;0.20;;;17.60;76.00;;;;;;4193213;28;20036;-49
2021/05/13 06:07:28;;;;;;;0.00;0.00;;;17.60;76.90;;;;;;4193225;28;20486;-47
2021/05/13 06:09:50;;;;;;;0.00;0.00;;;17.50;76.10;;;;;;4193184;28;20451;-50
2021/05/13 06:12:15;;;;;;;0.20;0.20;;;17.50;76.00;;;;;;4192767;28;20423;-51
2021/05/13 06:14:36;;;;;;;0.00;0.00;;;17.50;75.90;;;;;;4192874;28;20535;-49
2021/05/13 06:16:58;;;;;;;0.28;0.28;;;17.50;75.70;;;;;;4198110;28;20040;-46
2021/05/13 06:19:20;;;;;;;0.08;0.05;;;17.50;75.70;;;;;;4196782;28;20495;-47
2021/05/13 06:21:43;;;;;;;1.55;0.55;;;17.50;75.60;;;;;;4191948;28;20048;-46
2021/05/13 06:24:08;;;;;;;0.05;0.05;;;17.50;75.60;;;;;;4193112;28;20103;-46
2021/05/13 06:26:31;;;;;;;0.20;0.20;;;17.40;75.40;;;;;;4177749;28;20049;-45
2021/05/13 06:28:56;;;;;;;0.98;0.98;;;17.40;75.40;;;;;;4178195;28;20077;-47
2021/05/13 06:31:17;;;;;;;0.00;0.00;;;17.50;75.30;;;;;;4189523;28;20563;-47
2021/05/13 06:33:39;;;;;;;0.00;0.00;;;17.40;75.20;;;;;;4176396;28;20132;-47
2021/05/13 06:36:00;;;;;;;0.20;0.20;;;17.50;75.10;;;;;;4192200;28;20083;-47
2021/05/13 06:38:23;;;;;;;0.00;0.00;;;17.50;74.90;;;;;;4186072;28;20094;-47
2021/05/13 06:40:45;;;;;;;0.10;0.10;;;17.50;75.00;;;;;;4184625;28;20569;-47
2021/05/13 06:43:06;;;;;;;2.85;1.23;;;17.50;75.60;;;;;;4195785;28;20135;-49
2021/05/13 06:45:28;;;;;;;0.05;0.05;;;17.50;74.60;;;;;;4192468;28;20052;-46
2021/05/13 06:47:49;;;;;;;0.00;0.00;;;17.50;74.50;;;;;;4193019;28;20080;-49
2021/05/13 06:50:13;;;;;;;0.00;0.00;;;17.60;75.30;;;;;;4194634;28;20087;-49
2021/05/13 06:52:34;;;;;;;0.20;0.20;;;17.60;74.00;;;;;;4192415;28;20044;-47
2021/05/13 06:54:57;;;;;;;0.38;0.38;;;17.70;73.60;;;;;;4192271;28;20044;-46
2021/05/13 06:57:19;;;;;;;0.00;0.00;;;17.80;74.30;;;;;;4200386;28;20072;-46
2021/05/13 06:59:42;;;;;;;2.28;1.30;;;17.80;73.20;;;;;;4200347;28;20060;-48
2021/05/13 07:02:04;;;;;;;0.00;0.00;;;17.90;73.10;;;;;;4199509;28;20054;-48
2021/05/13 07:04:27;;;;;;;0.30;0.30;;;18.00;72.30;;;;;;4177321;28;20136;-52
2021/05/13 07:06:48;;;;;;;0.30;0.30;;;18.10;72.00;;;;;;4175391;28;20140;-48
2021/05/13 07:09:11;;;;;;;0.10;0.10;;;18.20;71.30;;;;;;4185549;28;20052;-48
2021/05/13 07:11:34;;;;;;;2.25;1.80;;;18.30;71.00;;;;;;4190336;28;20071;-51
2021/05/13 07:13:56;;;;;;;0.10;0.10;;;18.30;70.70;;;;;;4175390;28;20157;-46
2021/05/13 07:16:17;;;;;;;0.00;0.00;;;18.40;70.60;;;;;;4175834;28;20137;-48
2021/05/13 07:18:39;;;;;;;0.00;0.00;;;18.40;70.60;;;;;;4176138;28;20056;-50
2021/05/13 07:21:01;;;;;;;0.85;0.85;;;18.40;70.20;;;;;;4185954;28;20091;-49
2021/05/13 07:23:22;;;;;;;0.75;0.75;;;18.40;70.00;;;;;;4181519;28;20049;-49
2021/05/13 07:25:45;;;;;;;0.20;0.20;;;18.40;69.90;;;;;;4183851;28;20057;-52
2021/05/13 07:28:08;;;;;;;0.00;0.00;;;18.40;70.00;;;;;;4183061;28;20044;-49
2021/05/13 07:30:30;;;;;;;1.10;0.95;;;18.50;70.00;;;;;;4191140;28;20059;-48
2021/05/13 07:32:51;;;;;;;0.00;0.00;;;18.50;69.80;;;;;;4189827;28;20048;-47
2021/05/13 07:35:16;;;;;;;0.20;0.20;;;18.50;69.80;;;;;;4191695;28;20072;-47
2021/05/13 07:37:38;;;;;;;0.55;0.55;;;18.50;69.80;;;;;;4191666;28;20049;-48
2021/05/13 07:40:00;;;;;;;0.00;0.00;;;18.50;69.80;;;;;;4191242;28;20049;-51
2021/05/13 07:42:21;;;;;;;0.00;0.00;;;18.50;69.70;;;;;;4188103;28;20467;-49
2021/05/13 07:44:44;;;;;;;0.10;0.10;;;18.50;69.60;;;;;;4175168;28;20053;-48
2021/05/13 07:47:05;;;;;;;0.10;0.10;;;18.50;69.20;;;;;;4177109;28;20128;-52
2021/05/13 07:49:27;;;;;;;1.00;1.00;;;18.50;69.30;;;;;;4185950;28;20048;-49
2021/05/13 07:51:49;;;;;;;0.20;0.20;;;18.50;68.60;;;;;;4175144;28;20160;-49
2021/05/13 07:54:11;;;;;;;0.22;0.22;;;18.50;69.00;;;;;;4186882;28;20044;-47
2021/05/13 07:56:33;;;;;;;0.32;0.32;;;18.50;69.00;;;;;;4195453;28;20044;-46
2021/05/13 07:58:54;;;;;;;0.65;0.10;;;18.40;69.20;;;;;;4195564;28;20560;-50
2021/05/13 08:01:17;;;;;;;0.22;0.22;;;18.50;69.30;;;;;;4195105;28;20056;-47
2021/05/13 08:03:38;;;;;;;1.02;1.02;;;18.50;69.20;;;;;;4189076;28;20135;-50
2021/05/13 08:06:00;;;;;;;0.10;0.10;;;18.50;69.60;;;;;;4193668;28;20049;-47
2021/05/13 08:08:25;;;;;;;0.65;0.65;;;18.50;69.60;;;;;;4188360;28;20065;-45
2021/05/13 08:10:47;;;;;;;0.00;0.00;;;18.50;69.50;;;;;;4180688;28;20078;-47
2021/05/13 08:13:08;;;;;;;0.45;0.45;;;18.50;69.50;;;;;;4180998;28;20800;-50
2021/05/13 08:15:30;;;;;;;0.00;0.00;;;18.50;69.30;;;;;;4180003;28;20094;-48
2021/05/13 08:17:53;;;;;;;0.63;0.63;;;18.50;69.20;;;;;;4181254;28;20078;-47
2021/05/13 08:20:16;;;;;;;0.40;0.40;;;18.50;69.00;;;;;;4176402;28;20053;-46
2021/05/13 08:22:38;;;;;;;0.10;0.10;;;18.50;69.20;;;;;;4184316;28;20119;-45
2021/05/13 08:25:00;;;;;;;0.00;0.00;;;18.60;68.60;;;;;;4191340;28;20056;-46
2021/05/13 08:27:22;;;;;;;2.08;1.98;;;18.50;68.40;;;;;;4187446;28;20194;-49
2021/05/13 08:29:43;;;;;;;0.20;0.20;;;18.60;69.40;;;;;;4179108;28;20052;-50
2021/05/13 08:32:06;;;;;;;0.30;0.30;;;18.50;68.40;;;;;;4174380;28;20060;-46
2021/05/13 08:34:28;;;;;;;1.15;1.08;;;18.60;68.70;;;;;;4174457;28;20072;-51
2021/05/13 08:36:50;;;;;;;0.57;0.57;;;18.60;68.70;;;;;;4174482;28;20136;-52
2021/05/13 08:39:15;;;;;;;0.00;0.00;;;18.60;68.90;;;;;;4188538;28;20045;-51
2021/05/13 08:41:37;;;;;;;0.00;0.00;;;18.60;68.80;;;;;;4191890;28;20068;-47
2021/05/13 08:43:59;;;;;;;0.00;0.00;;;18.70;68.90;;;;;;4192206;28;20045;-49
2021/05/13 08:46:21;;;;;;;0.35;0.35;;;18.70;68.80;;;;;;4197389;28;20101;-50
2021/05/13 08:48:44;;;;;;;0.43;0.25;;;18.70;68.90;;;;;;4176740;28;20069;-50
2021/05/13 08:51:07;;;;;;;0.00;0.00;;;18.70;69.00;;;;;;4194310;28;20057;-50
2021/05/13 08:53:30;;;;;;;0.20;0.20;;;18.70;69.30;;;;;;4195543;28;20491;-49
2021/05/13 08:55:52;;;;;;;0.00;0.00;;;18.70;69.10;;;;;;4195869;28;20080;-48
2021/05/13 08:58:14;;;;;;;0.20;0.20;;;18.80;69.20;;;;;;4195402;28;20052;-47
2021/05/13 09:00:35;;;;;;;0.00;0.00;;;18.70;69.00;;;;;;4192629;28;20139;-49
2021/05/13 09:02:57;;;;;;;0.32;0.32;;;18.70;68.70;;;;;;4194315;28;20548;-50
2021/05/13 09:05:19;;;;;;;0.90;0.45;;;18.70;68.50;;;;;;4193934;28;20052;-49
2021/05/13 09:07:41;;;;;;;0.00;0.00;;;18.70;68.50;;;;;;4177595;28;20144;-45
2021/05/13 09:10:06;;;;;;;0.65;0.65;;;18.70;68.40;;;;;;4194731;28;20052;-48
2021/05/13 09:12:29;;;;;;;0.03;0.03;;;18.70;68.30;;;;;;4196525;28;20048;-48
2021/05/13 09:15:00;;;;;;;0.10;0.10;;;18.70;68.30;;;;;;4194726;28;20048;-47
2021/05/13 09:17:25;;;;;;;6.63;1.90;;;18.80;68.20;;;;;;4181296;28;20135;-49
2021/05/13 09:19:46;;;;;;;0.35;0.30;;;18.80;68.00;;;;;;4191577;28;20563;-47
2021/05/13 09:22:10;;;;;;;0.10;0.10;;;18.80;68.70;;;;;;4186905;28;20060;-47
2021/05/13 09:24:50;;;;;;;0.00;0.00;;;18.80;67.60;;;;;;4177552;28;20835;-46
2021/05/13 09:27:21;;;;;;;0.38;0.38;;;18.80;67.30;;;;;;4209148;28;20052;-50
2021/05/13 09:29:43;;;;;;;0.00;0.00;;;18.80;67.00;;;;;;4200399;28;20049;-46
2021/05/13 09:32:14;;;;;;;0.00;0.00;;;18.90;66.70;;;;;;4193778;28;20506;-51
2021/05/13 09:34:36;;;;;;;3.97;0.70;;;18.90;66.40;;;;;;4207182;28;20123;-47
2021/05/13 09:36:58;;;;;;;0.20;0.20;;;18.90;66.10;;;;;;4210519;28;20048;-46
2021/05/13 09:39:21;;;;;;;0.00;0.00;;;18.90;65.80;;;;;;4201262;28;20139;-49
2021/05/13 09:41:43;;;;;;;0.00;0.00;;;19.00;65.80;;;;;;4193144;28;20064;-51
2021/05/13 09:44:36;;;;;;;0.00;0.00;;;19.00;65.60;;;;;;4193404;28;20048;-52
2021/05/13 09:47:13;;;;;;;0.00;0.00;;;19.00;65.60;;;;;;4186109;28;20045;-49
2021/05/13 09:49:40;;;;;;;0.00;0.00;;;19.00;65.50;;;;;;4194538;28;20421;-49
2021/05/13 09:52:03;;;;;;;0.00;0.00;;;19.00;65.30;;;;;;4209383;28;20101;-51
2021/05/13 09:54:25;;;;;;;0.55;0.55;;;19.00;65.20;;;;;;4191217;28;20541;-50
2021/05/13 09:56:49;;;;;;;0.00;0.00;;;19.10;65.00;;;;;;4190210;28;20131;-47
2021/05/13 09:59:22;;;;;;;0.45;0.45;;;19.10;65.00;;;;;;4192903;28;20040;-47
2021/05/13 10:01:44;;;;;;;0.00;0.00;;;19.10;65.00;;;;;;4193314;28;20054;-48
2021/05/13 10:04:06;;;;;;;0.00;0.00;;;19.10;64.80;;;;;;4198261;28;20113;-48
2021/05/13 10:06:28;;;;;;;0.00;0.00;;;19.10;64.70;;;;;;4210015;28;20055;-45
2021/05/13 10:08:49;;;;;;;0.00;0.00;;;19.10;64.70;;;;;;4209595;28;20391;-46
2021/05/13 10:11:14;;;;;;;0.10;0.10;;;19.20;64.70;;;;;;4209875;28;20052;-47
2021/05/13 10:13:37;;;;;;;0.35;0.35;;;19.20;64.70;;;;;;4207105;28;20047;-47
2021/05/13 10:16:00;;;;;;;0.00;0.00;;;19.20;64.60;;;;;;4192689;28;20106;-47
2021/05/13 10:18:25;;;;;;;0.00;0.00;;;19.20;64.60;;;;;;4193260;28;20171;-45
2021/05/13 10:20:52;;;;;;;0.00;0.00;;;19.20;64.50;;;;;;4201246;28;20056;-47
2021/05/13 10:23:14;;;;;;;0.38;0.38;;;19.30;64.50;;;;;;4182438;28;20049;-47
2021/05/13 10:25:37;;;;;;;0.00;0.00;;;19.30;64.40;;;;;;4176007;28;20474;-50
2021/05/13 10:28:00;;;;;;;0.47;0.32;;;19.30;64.30;;;;;;4177426;28;20053;-49
2021/05/13 10:30:27;;;;;;;0.10;0.10;;;19.30;64.20;;;;;;4176112;28;20044;-47
2021/05/13 10:33:15;;;;;;;1.27;0.32;;;19.20;64.20;;;;;;4186396;28;20045;-48
2021/05/13 10:35:38;;;;;;;0.47;0.20;;;19.30;64.00;;;;;;4192531;28;20044;-48
2021/05/13 10:38:00;;;;;;;0.15;0.15;;;19.30;64.00;;;;;;4204606;28;20051;-47
2021/05/13 10:43:03;;;;;;;0.10;0.10;;;19.30;64.00;;;;;;4200824;28;20036;-46
2021/05/13 10:45:34;;;;;;;0.52;0.52;;;19.30;63.90;;;;;;4208997;28;20055;-47
2021/05/13 10:48:20;;;;;;;0.07;0.07;;;19.30;63.80;;;;;;4208636;28;20048;-47
2021/05/13 10:50:44;;;;;;;0.00;0.00;;;19.30;63.90;;;;;;4192297;28;20290;-47
2021/05/13 10:53:47;;;;;;;0.10;0.10;;;19.30;63.90;;;;;;4192686;28;20430;-48
2021/05/13 10:56:24;;;;;;;0.00;0.00;;;19.30;63.90;;;;;;4192669;28;20486;-49
2021/05/13 10:58:53;;;;;;;0.00;0.00;;;19.30;64.00;;;;;;4192197;28;20056;-47
2021/05/13 11:01:32;;;;;;;0.00;0.00;;;19.30;64.00;;;;;;4197633;28;20048;-50
2021/05/13 11:04:41;;;;;;;0.00;0.00;;;19.30;64.20;;;;;;4208327;28;20078;-47
2021/05/13 11:07:05;;;;;;;0.00;0.00;;;19.30;64.10;;;;;;4193225;28;20418;-52
2021/05/13 11:10:06;;;;;;;0.00;0.00;;;19.30;64.20;;;;;;4195177;28;20044;-44
2021/05/13 11:12:28;;;;;;;0.00;0.00;;;19.30;64.20;;;;;;4119936;28;20050;-48
2021/05/13 11:15:07;;;;;;;0.00;0.00;;;19.30;64.00;;;;;;4170579;28;20045;-47
2021/05/13 11:18:04;;;;;;;2.92;1.02;;;19.30;64.10;;;;;;4191666;28;20503;-48
2021/05/13 11:20:28;;;;;;;0.00;0.00;;;19.30;64.10;;;;;;4189961;28;20048;-47
2021/05/13 11:22:52;;;;;;;0.75;0.75;;;19.40;64.00;;;;;;4197957;28;20049;-48
2021/05/13 11:25:13;;;;;;;0.00;0.00;;;19.40;63.90;;;;;;4191947;28;20052;-44
2021/05/13 11:27:35;;;;;;;0.20;0.20;;;19.40;63.70;;;;;;4199430;28;20058;-48
2021/05/13 11:29:58;;;;;;;0.00;0.00;;;19.40;63.70;;;;;;4203768;28;20043;-50
2021/05/13 11:32:20;;;;;;;0.10;0.10;;;19.40;63.90;;;;;;4202277;28;20048;-53
2021/05/13 11:34:46;;;;;;;0.20;0.20;;;19.40;64.00;;;;;;4201848;28;20406;-50
2021/05/13 11:37:09;;;;;;;0.50;0.50;;;19.40;64.90;;;;;;4191518;28;20083;-48
2021/05/13 11:39:30;;;;;;;0.30;0.30;;;19.40;64.00;;;;;;4187051;28;20055;-48
2021/05/13 11:42:00;;;;;;;0.00;0.00;;;19.40;64.00;;;;;;4185949;28;20144;-50
2021/05/13 11:44:22;;;;;;;0.17;0.17;;;19.40;64.00;;;;;;4188033;28;20462;-50
2021/05/13 11:46:44;;;;;;;0.00;0.00;;;19.40;63.90;;;;;;4175527;28;20414;-48
2021/05/13 11:49:06;;;;;;;0.15;0.15;;;19.40;63.80;;;;;;4185493;28;20041;-49
2021/05/13 11:51:30;;;;;;;0.17;0.17;;;19.40;63.60;;;;;;4188134;28;20045;-46
2021/05/13 11:53:57;;;;;;;0.00;0.00;;;19.40;63.70;;;;;;4184205;28;20468;-48
2021/05/13 11:56:19;;;;;;;0.17;0.17;;;19.50;63.90;;;;;;4191792;28;20520;-50
2021/05/13 11:58:43;;;;;;;0.30;0.30;;;19.40;63.70;;;;;;4195085;28;20055;-47
2021/05/13 12:01:23;;;;;;;2.15;1.95;;;19.40;63.70;;;;;;4193121;28;20052;-45
2021/05/13 12:03:45;;;;;;;0.00;0.00;;;19.40;63.70;;;;;;4174925;28;20141;-46
2021/05/13 12:06:07;;;;;;;0.17;0.17;;;19.40;63.40;;;;;;4183386;28;20513;-50
2021/05/13 12:08:28;;;;;;;0.20;0.20;;;19.40;63.20;;;;;;4206809;28;20048;-52
2021/05/13 12:10:51;;;;;;;0.20;0.20;;;19.40;63.20;;;;;;4207801;28;20489;-45
2021/05/13 12:13:13;;;;;;;0.00;0.00;;;19.40;63.20;;;;;;4207604;28;20075;-47
2021/05/13 12:15:34;;;;;;;0.03;0.03;;;19.40;62.70;;;;;;4193127;28;20056;-45
2021/05/13 12:17:56;;;;;;;0.40;0.40;;;19.40;62.70;;;;;;4207767;28;20054;-44
2021/05/13 12:20:18;;;;;;;0.10;0.10;;;19.50;62.90;;;;;;4207333;28;20406;-46
2021/05/13 12:22:39;;;;;;;;;;;19.50;63.10;;;;;;4200974;28;20097;-48
2021/05/13 12:25:01;;;;;;;0.20;0.20;;;19.50;62.90;;;;;;4207393;28;20017;-47
2021/05/13 12:27:24;;;;;;;0.00;0.00;;;19.50;62.80;;;;;;4189611;28;20685;-48
2021/05/13 12:29:48;;;;;;;0.25;0.25;;;19.50;62.90;;;;;;4177466;28;20057;-46
2021/05/13 12:32:10;;;;;;;0.75;0.75;;;19.50;62.70;;;;;;4188816;28;20044;-46